Latest Weather Observations for Narrandera Airport

IDN60801

Issued at 5:42 pm EST Friday 21 September 2018 (issued every 10 minutes, with the page automatically refreshed every 10 minutes)

About weather observations | Map of weather stations | Latest weather observations for NSW | Other Formats
Station Details ID: 074148 Name: NARRANDERA AIRPORT AWS Lat: -34.70 Lon: 146.51 Height: 145.0 m
Data from the previous 72 hours. | See also: Recent months at Narrandera Airport
Date/Time
EST
Temp
°C
App
Temp
°C
Dew
Point
°C
Rel
Hum
%
Delta-T
°C
Wind Press
QNH
hPa
Press
MSL
hPa
Rain since
9am
mm
Dir  Spd
km/h
Gust
km/h
Spd
kts
Gust
kts
21/05:30pm 21.7 17.9 3.9 31 8.6 WSW 13 19 7 10 1025.6 1025.7 -
21/05:00pm 22.3 18.4 3.4 29 9.1 WSW 13 20 7 11 1025.5 1025.6 -
21/04:30pm 22.0 17.6 2.7 28 9.2 SW 15 20 8 11 1025.3 1025.4 -
21/04:00pm 22.3 17.6 2.9 28 9.3 WSW 17 24 9 13 1025.2 1025.3 -
21/03:30pm 22.7 18.0 3.3 28 9.4 W 17 24 9 13 1025.1 1025.2 -
21/03:00pm 22.6 17.9 3.2 28 9.3 W 17 26 9 14 1025.3 1025.4 0.0
21/02:30pm 22.4 18.8 3.0 28 9.3 W 11 24 6 13 1025.7 1025.8 -
21/02:00pm 22.1 18.1 2.8 28 9.2 W 13 20 7 11 1026.1 1026.2 -
21/01:30pm 21.9 17.1 2.6 28 9.2 WNW 17 22 9 12 1026.4 1026.5 -
21/01:00pm 21.0 17.0 2.8 30 8.6 W 13 20 7 11 1026.9 1026.9 -
21/12:30pm 20.7 16.6 2.0 29 8.7 W 13 32 7 17 1027.3 1027.3 -
21/12:00pm 19.9 16.5 1.8 30 8.3 NW 9 20 5 11 1027.7 1027.7 0.0
21/11:30am 19.2 14.3 1.7 31 8.0 W 17 26 9 14 1028.2 1028.2 0.0
21/11:00am 19.0 15.5 1.5 31 7.9 WNW 9 24 5 13 1028.4 1028.4 0.0
21/10:30am 18.8 14.5 0.9 30 8.0 NNW 13 20 7 11 1028.6 1028.6 0.0
21/10:00am 17.8 14.1 0.0 30 7.7 NW 9 17 5 9 1028.7 1028.7 0.0
21/09:30am 16.5 12.5 0.6 34 6.9 NW 11 15 6 8 1028.7 1028.7 0.0
21/09:00am 15.0 11.5 1.2 39 6.0 NNW 9 15 5 8 1028.6 1028.6 0.0
21/08:30am 13.0 10.8 1.0 44 5.1 N 2 6 1 3 1028.4 1028.4 0.0
21/08:00am 10.4 8.4 -0.1 48 4.2 CALM 0 0 0 0 1028.2 1028.2 0.0
21/07:30am 8.3 6.3 0.1 56 3.3 CALM 0 0 0 0 1027.8 1027.8 0.0
21/07:00am 4.5 2.4 -0.5 70 1.9 CALM 0 0 0 0 1027.7 1027.7 0.0
21/06:30am 2.0 -0.2 -1.4 78 1.2 CALM 0 0 0 0 1027.2 1027.2 0.0
21/06:00am 2.1 0.0 -0.8 81 1.0 CALM 0 0 0 0 1026.9 1026.9 0.0
21/05:30am 1.7 -0.5 -1.7 78 1.2 CALM 0 0 0 0 1026.5 1026.6 0.0
21/05:00am 2.2 0.1 -0.5 82 1.0 CALM 0 0 0 0 1026.2 1026.3 0.0
21/04:30am 2.7 0.7 -0.4 80 1.1 CALM 0 0 0 0 1026.0 1026.1 0.0
21/04:00am 2.8 0.7 -0.8 77 1.3 CALM 0 0 0 0 1025.6 1025.7 0.0
21/03:30am 2.8 0.6 -1.4 74 1.5 CALM 0 0 0 0 1025.5 1025.6 0.0
21/03:00am 3.1 0.9 -1.4 72 1.6 CALM 0 0 0 0 1025.5 1025.6 0.0
21/02:30am 3.4 1.2 -1.9 68 1.9 CALM 0 0 0 0 1025.7 1025.8 0.0
21/02:00am 3.3 1.0 -2.0 68 1.9 CALM 0 0 0 0 1025.9 1026.0 0.0
21/01:30am 3.4 1.1 -2.1 67 2.0 CALM 0 0 0 0 1026.1 1026.2 0.0
21/01:00am 4.0 1.8 -1.6 67 2.0 CALM 0 0 0 0 1026.2 1026.3 0.0
21/12:30am 4.4 2.2 -1.2 67 2.1 CALM 0 0 0 0 1026.1 1026.2 0.0
21/12:00am 4.7 2.5 -1.7 63 2.3 CALM 0 0 0 0 1025.9 1026.0 0.0
 
Date/Time
EST
Temp
°C
App
Temp
°C
Dew
Point
°C
Rel
Hum
%
Delta-T
°C
Wind Press
QNH
hPa
Press
MSL
hPa
Rain since
9am
mm
Dir  Spd
km/h
Gust
km/h
Spd
kts
Gust
kts
20/11:30pm 5.0 2.8 -1.7 62 2.5 CALM 0 0 0 0 1026.0 1026.1 0.0
20/11:00pm 5.3 3.1 -1.6 61 2.5 CALM 0 0 0 0 1025.9 1026.0 0.0
20/10:30pm 6.1 4.1 0.0 65 2.4 CALM 0 0 0 0 1025.8 1025.9 0.0
20/10:00pm 6.5 4.5 0.0 63 2.5 CALM 0 0 0 0 1025.6 1025.7 0.0
20/09:30pm 7.3 5.4 0.5 62 2.7 CALM 0 0 0 0 1025.4 1025.5 0.0
20/09:00pm 8.9 6.8 -0.9 50 3.8 CALM 0 0 0 0 1025.1 1025.2 0.0
20/08:30pm 9.3 7.2 -0.6 50 3.9 CALM 0 0 0 0 1024.8 1024.9 0.0
20/08:00pm 10.8 7.4 -0.9 44 4.7 SW 7 7 4 4 1024.2 1024.2 0.0
20/07:30pm 12.0 8.5 -1.5 39 5.4 SW 7 9 4 5 1023.8 1023.8 0.0
20/07:00pm 13.6 10.1 -1.6 35 6.1 SSW 7 9 4 5 1023.3 1023.3 0.0
20/06:30pm 15.0 10.8 -1.1 33 6.7 SSW 11 17 6 9 1023.0 1023.0 0.0
20/06:00pm 16.1 11.4 -1.5 30 7.3 SW 13 20 7 11 1022.5 1022.5 0.0
20/05:30pm 17.2 11.8 -1.4 28 7.8 SW 17 24 9 13 1022.2 1022.2 0.0
20/05:00pm 17.7 11.8 -2.0 26 8.2 SW 19 28 10 15 1021.9 1021.9 0.0
20/04:30pm 18.2 12.4 -1.6 26 8.4 SW 19 28 10 15 1021.5 1021.5 0.0
20/04:00pm 17.9 11.9 -1.9 26 8.3 SW 20 30 11 16 1021.3 1021.3 0.0
20/03:30pm 18.3 12.9 -1.5 26 8.4 WSW 17 22 9 12 1021.3 1021.3 0.0
20/03:00pm 18.9 12.9 -1.5 25 8.7 WSW 20 32 11 17 1021.3 1021.3 0.0
20/02:30pm 19.3 14.2 -1.7 24 9.0 SW 15 28 8 15 1021.2 1021.2 0.0
20/02:00pm 18.1 12.6 -2.2 25 8.5 SW 17 30 9 16 1021.3 1021.3 0.0
20/01:30pm 17.8 13.2 -1.4 27 8.1 SSW 13 30 7 16 1021.3 1021.3 0.0
20/01:00pm 17.3 11.4 -1.9 27 8.0 W 19 26 10 14 1021.4 1021.4 0.0
20/12:30pm 17.3 13.0 -1.4 28 7.9 W 11 19 6 10 1021.5 1021.5 0.0
20/12:00pm 16.9 12.3 -1.2 29 7.6 WSW 13 20 7 11 1021.9 1021.9 0.0
20/11:30am 16.6 12.8 -0.6 31 7.3 W 9 20 5 11 1022.0 1022.0 0.0
20/11:00am 15.7 11.2 -0.5 33 6.8 W 13 19 7 10 1022.1 1022.1 0.0
20/10:30am 15.1 11.4 -0.2 35 6.5 WSW 9 19 5 10 1022.4 1022.4 0.0
20/10:00am 13.7 10.3 -0.3 38 5.8 SW 7 13 4 7 1022.3 1022.3 0.0
20/09:30am 12.7 9.5 0.5 43 5.1 WSW 7 13 4 7 1022.2 1022.2 0.0
20/09:00am 11.4 8.3 -0.1 45 4.7 W 6 9 3 5 1022.0 1022.0 0.0
20/08:30am 9.3 5.9 -0.8 49 4.0 NW 7 9 4 5 1021.7 1021.7 0.0
20/08:00am 8.1 4.7 -0.6 54 3.4 WNW 7 9 4 5 1021.2 1021.2 0.0
20/07:30am 6.4 2.2 -1.2 58 2.9 NW 11 13 6 7 1020.7 1020.7 0.0
20/07:00am 3.8 1.3 -1.2 70 1.8 NW 2 7 1 4 1020.4 1020.4 0.0
20/06:30am 1.2 -1.2 -3.3 72 1.6 CALM 0 0 0 0 1019.9 1019.9 0.0
20/06:00am 1.3 -1.0 -2.3 77 1.2 CALM 0 0 0 0 1019.4 1019.5 0.0
20/05:30am 1.6 -0.7 -2.5 74 1.4 CALM 0 0 0 0 1019.1 1019.2 0.0
20/05:00am 1.3 -2.2 -3.0 73 1.5 SSE 6 7 3 4 1018.7 1018.8 0.0
20/04:30am 1.4 -2.2 -2.4 76 1.3 SE 7 9 4 5 1018.6 1018.6 0.0
20/04:00am 1.5 -0.9 -3.2 71 1.7 CALM 0 0 0 0 1018.5 1018.5 0.0
20/03:30am 1.9 -0.5 -3.2 69 1.7 CALM 0 0 0 0 1018.2 1018.2 0.0
20/03:00am 3.1 0.5 -1.8 70 1.7 W 2 9 1 5 1018.1 1018.1 0.0
20/02:30am 3.3 1.1 -1.6 70 1.8 CALM 0 0 0 0 1017.9 1017.9 0.0
20/02:00am 3.3 1.0 -2.0 68 1.9 CALM 0 0 0 0 1017.9 1017.9 0.0
20/01:30am 4.1 1.9 -1.9 65 2.2 CALM 0 0 0 0 1018.0 1018.0 0.0
20/01:00am 3.7 1.4 -2.0 66 2.0 CALM 0 0 0 0 1018.1 1018.1 0.0
20/12:30am 4.0 1.8 -1.4 68 2.0 CALM 0 0 0 0 1018.2 1018.2 0.0
20/12:00am 4.3 2.0 -2.3 62 2.4 CALM 0 0 0 0 1018.2 1018.2 0.0
 
Date/Time
EST
Temp
°C
App
Temp
°C
Dew
Point
°C
Rel
Hum
%
Delta-T
°C
Wind Press
QNH
hPa
Press
MSL
hPa
Rain since
9am
mm
Dir  Spd
km/h
Gust
km/h
Spd
kts
Gust
kts
19/11:30pm 4.4 2.2 -1.4 66 2.1 CALM 0 0 0 0 1018.1 1018.1 0.0
19/11:00pm 5.3 2.9 -2.8 56 2.9 CALM 0 0 0 0 1018.1 1018.1 0.0
19/10:30pm 6.5 4.2 -2.6 52 3.3 CALM 0 0 0 0 1018.0 1018.0 0.0
19/10:00pm 7.0 4.8 -1.7 54 3.3 CALM 0 0 0 0 1017.9 1017.9 0.0
19/09:30pm 7.0 4.0 -2.2 52 3.4 NNW 4 7 2 4 1018.0 1018.0 0.0
19/09:00pm 8.1 5.9 -1.4 51 3.6 CALM 0 0 0 0 1017.9 1017.9 0.0
19/08:30pm 9.4 5.9 -2.5 43 4.5 SW 6 7 3 4 1017.7 1017.7 0.0
19/08:00pm 10.3 6.2 -2.7 40 4.9 SSW 9 9 5 5 1017.4 1017.4 0.0
19/07:30pm 11.5 7.4 -3.0 36 5.6 SSW 9 13 5 7 1017.0 1017.0 0.0
19/07:00pm 12.7 8.6 -3.1 33 6.1 SW 9 13 5 7 1016.5 1016.5 0.0
19/06:30pm 13.8 9.6 -3.5 30 6.7 SW 9 13 5 7 1016.1 1016.1 0.0
19/06:00pm 14.8 8.7 -3.5 28 7.2 SW 19 28 10 15 1015.8 1015.8 0.0
19/05:30pm 15.7 10.1 -3.2 27 7.6 SW 17 26 9 14 1015.3 1015.3 0.0
19/05:00pm 16.2 10.0 -3.3 26 7.8 SW 20 32 11 17 1015.0 1015.0 0.0
19/04:30pm 16.6 10.4 -3.0 26 7.9 SW 20 28 11 15 1014.8 1014.8 0.0
19/04:00pm 16.5 9.6 -3.0 26 7.9 W 24 33 13 18 1014.6 1014.6 0.0
19/03:30pm 16.3 10.3 -3.2 26 7.8 SW 19 30 10 16 1014.5 1014.5 0.0
19/03:00pm 17.2 10.6 -3.0 25 8.2 WSW 22 35 12 19 1014.5 1014.5 0.0
19/02:30pm 16.9 10.0 -2.7 26 8.0 WSW 24 41 13 22 1014.6 1014.6 0.0
19/02:00pm 16.4 9.9 -2.1 28 7.6 WSW 22 35 12 19 1014.6 1014.6 0.0
19/01:30pm 16.1 9.8 -1.0 31 7.2 SW 22 41 12 22 1014.8 1014.8 0.0
19/01:00pm 16.2 9.8 -1.8 29 7.4 WSW 22 39 12 21 1014.9 1014.9 0.0
19/12:30pm 16.0 9.2 -2.0 29 7.4 W 24 35 13 19 1015.2 1015.2 0.0
19/12:00pm 15.7 8.6 -1.4 31 7.1 W 26 41 14 22 1015.2 1015.2 0.0
19/11:30am 15.1 8.5 -0.6 34 6.6 WSW 24 39 13 21 1015.4 1015.4 0.0
19/11:00am 13.9 7.7 -0.5 37 6.0 WSW 22 30 12 16 1015.5 1015.5 0.0
19/10:30am 13.8 7.6 -0.3 38 5.9 WSW 22 32 12 17 1015.6 1015.6 0.0
19/10:00am 13.3 7.7 1.0 43 5.3 WSW 20 32 11 17 1015.6 1015.6 0.0
19/09:30am 12.9 7.4 1.6 46 4.9 WSW 20 32 11 17 1015.4 1015.4 0.0
19/09:00am 12.1 6.7 2.6 52 4.2 W 20 28 11 15 1015.1 1015.1 0.0
19/08:30am 11.8 6.6 3.3 56 3.8 WSW 20 32 11 17 1015.0 1015.0 0.0
19/08:00am 11.4 6.4 3.4 58 3.5 WSW 19 28 10 15 1014.8 1014.8 0.0
19/07:30am 10.9 6.6 3.0 58 3.5 WSW 15 24 8 13 1014.4 1014.4 0.0
19/07:00am 10.4 6.0 2.7 59 3.3 WSW 15 20 8 11 1014.1 1014.1 0.0
19/06:30am 10.2 5.5 3.0 61 3.1 WSW 17 28 9 15 1013.8 1013.8 0.0
19/06:00am 10.8 6.1 3.4 60 3.3 WSW 17 26 9 14 1013.5 1013.5 0.0
19/05:30am 11.2 6.5 3.3 58 3.5 SW 17 28 9 15 1013.1 1013.1 0.0
19/05:00am 11.7 7.7 4.9 63 3.1 WSW 15 24 8 13 1012.6 1012.5 0.0
19/04:30am 12.0 7.7 5.2 63 3.2 WSW 17 28 9 15 1012.2 1012.2 0.0
19/04:00am 12.2 7.5 5.1 62 3.3 WSW 19 28 10 15 1012.0 1012.0 0.0
19/03:30am 12.6 7.8 4.8 59 3.6 WSW 19 32 10 17 1011.5 1011.5 0.0
19/03:00am 13.3 8.4 4.2 54 4.2 SW 19 26 10 14 1011.4 1011.4 0.0
19/02:30am 13.7 9.1 3.8 51 4.5 SW 17 24 9 13 1010.7 1010.7 0.0
19/02:00am 14.3 9.3 3.7 49 4.9 SW 19 26 10 14 1011.0 1011.0 0.0
19/01:30am 14.7 10.4 3.5 47 5.1 SSW 15 20 8 11 1011.4 1011.4 0.0
19/01:00am 15.2 10.4 2.4 42 5.8 SW 17 24 9 13 1011.5 1011.5 0.0
19/12:30am 15.7 9.9 -1.4 31 7.1 SSW 19 26 10 14 1011.3 1011.3 0.0
19/12:00am 16.4 11.0 -4.8 23 8.3 SW 15 20 8 11 1011.2 1011.2 0.0
 
Date/Time
EST
Temp
°C
App
Temp
°C
Dew
Point
°C
Rel
Hum
%
Delta-T
°C
Wind Press
QNH
hPa
Press
MSL
hPa
Rain since
9am
mm
Dir  Spd
km/h
Gust
km/h
Spd
kts
Gust
kts
18/11:30pm 17.4 11.9 -5.1 21 8.8 SW 15 20 8 11 1011.3 1011.3 0.0
18/11:00pm 17.7 12.5 -6.2 19 9.2 WSW 13 19 7 10 1011.6 1011.6 0.0
18/10:30pm 17.5 12.3 -5.7 20 9.0 W 13 19 7 10 1011.6 1011.6 0.0
18/10:00pm 15.3 12.5 -3.1 28 7.4 W 2 9 1 5 1011.3 1011.3 0.0
18/09:30pm 14.2 12.0 -1.8 33 6.5 CALM 0 0 0 0 1011.3 1011.3 0.0
18/09:00pm 15.4 13.0 -3.5 27 7.5 CALM 0 0 0 0 1011.6 1011.6 0.0
18/08:30pm 15.3 12.8 -3.6 27 7.5 CALM 0 0 0 0 1011.7 1011.7 0.0
18/08:00pm 15.7 13.2 -3.7 26 7.7 CALM 0 0 0 0 1011.8 1011.8 0.0
18/07:30pm 15.1 11.6 -1.5 32 6.8 NNE 7 9 4 5 1011.5 1011.5 0.0
18/07:00pm 16.3 12.6 -2.7 27 7.7 N 7 9 4 5 1011.6 1011.6 0.0
18/06:30pm 18.7 14.2 -6.8 17 9.8 NW 9 11 5 6 1011.4 1011.4 0.0
18/06:00pm 21.0 15.7 -7.5 14 11.0 NW 13 19 7 10 1011.5 1011.5 0.0

Other Formats:

Comma delimited format used in spreadsheet applications
http://www.bom.gov.au/fwo/IDN60801/IDN60801.95706.axf

JavaScript Object Notation format (JSON) in row-major order
http://www.bom.gov.au/fwo/IDN60801/IDN60801.95706.json